Ocean Majesty — CQSC — position and weather

sailwx.info

Track history (hours):
 
Tides and Currents Weather Stations Pressure Air Temp Water Temp Dewpoint Dewpoint Depression Visibility Wind Speed Wind Dir Waves Ship Positions

Ocean Majesty

Last reported at 2014-Sep-01 05:33 UTC. Time now 2014-Sep-01 21:23 UTC.
Position N 45°38' W 001°18'.

Length 136 m; draft 6.3 m.

Type: Passenger vessel. MMSI: 255717000.

Date/timePositionNaut miles runAvg speedWind from/ knotsBaromVisibWave heightAir tempDewpointWater temp
2014-Sep-01 05:33N 45°38' W 001°18'9 8.6
2014-Sep-01 04:33N 45°41' W 001°29'1616.3
2014-Sep-01 03:33N 45°53' W 001°45'1616.3
2014-Sep-01 02:33N 46°05' W 002°02'1616.5
2014-Sep-01 01:33N 46°16' W 002°18'1816.5
2014-Sep-01 00:26N 46°28' W 002°39'1516.2
2014-Aug-31 23:31N 46°38' W 002°55'1616.6
2014-Aug-31 22:33N 46°48' W 003°13'1717.0
2014-Aug-31 21:32N 46°59' W 003°32'3417.2
2014-Aug-31 19:33N 47°21' W 004°11'1717.3
2014-Aug-31 18:33N 47°33' W 004°30'1716.7
2014-Aug-31 17:33N 47°44' W 004°49'1515.6
2014-Aug-31 16:33N 47°54' W 005°06'3715.8
2014-Aug-31 14:11N 48°23' W 005°41'9113.8
2014-Aug-31 07:33N 49°30' W 004°07'17615.7
2014-Aug-30 20:20N 50°33' E 000°08'1316.8
2014-Aug-30 19:33N 50°37' E 000°28'1717.0
2014-Aug-30 18:33N 50°46' E 000°51'2116.1
2014-Aug-30 17:17N 50°58' E 001°17'1013.9
2014-Aug-30 16:33N 51°05' E 001°29'1413.6
2014-Aug-30 15:34N 51°14' E 001°45'1414.3
2014-Aug-30 14:33N 51°27' E 001°56'1615.8
2014-Aug-30 13:33N 51°39' E 002°12'9016.9
2014-Aug-30 08:14N 52°48' E 003°45'1315.1
2014-Aug-30 07:22N 52°58' E 003°59'1614.7
2014-Aug-30 06:18N 53°09' E 004°19'1114.1
2014-Aug-30 05:33N 53°17' E 004°29'1514.7
2014-Aug-30 04:34N 53°29' E 004°43'1616.4
2014-Aug-30 03:33N 53°36' E 005°09'1716.7
2014-Aug-30 02:34N 53°41' E 005°36'7715.4
2014-Aug-29 21:33N 54°02' E 007°41'1615.6
2014-Aug-29 20:33N 54°01' E 008°07'1514.5
2014-Aug-29 19:33N 53°58' E 008°32'1514.8
2014-Aug-29 18:33N 53°51' E 008°53'1312.8
2014-Aug-29 17:33N 53°53' E 009°15'1414.5
2014-Aug-29 16:33N 53°41' E 009°30'1110.7
2014-Aug-29 15:33N 53°34' E 009°43'9 8.9
2014-Aug-29 14:33N 53°33' E 009°58'1 1.1
2014-Aug-29 13:28N 53°32' E 009°60'0 0.0
2014-Aug-29 12:31N 53°32' E 009°60'0 0.0
2014-Aug-29 11:31N 53°32' E 009°60'0 0.0
2014-Aug-29 10:31N 53°32' E 009°60'0 0.0
2014-Aug-29 09:31N 53°32' E 009°60'0 0.0
2014-Aug-29 08:31N 53°32' E 009°60'0 0.0
2014-Aug-29 07:31N 53°32' E 009°60'0 0.0
2014-Aug-29 06:34N 53°32' E 009°60'4 4.2
2014-Aug-29 05:34N 53°33' E 009°53'1111.2
2014-Aug-29 04:34N 53°36' E 009°35'1312.9
2014-Aug-29 03:34N 53°47' E 009°23'1111.3
2014-Aug-29 02:33N 53°53' E 009°06'1110.7
2014-Aug-29 01:33N 53°50' E 008°48'1111.1
2014-Aug-29 00:32N 53°58' E 008°34'1312.6
2014-Aug-28 23:30N 53°60' E 008°12'1110.8
2014-Aug-28 22:27N 54°03' E 007°54'1412.7
2014-Aug-28 21:23N 54°12' E 007°37'1113.1
2014-Aug-28 20:33N 54°18' E 007°21'1313.3
2014-Aug-28 19:33N 54°25' E 007°01'27614.5
2014-Aug-28 00:30N 55°46' W 000°39'1514.3
2014-Aug-27 23:28N 55°50' W 001°04'1414.0
2014-Aug-27 22:30N 55°54' W 001°28'2814.2
2014-Aug-27 20:31N 56°03' W 002°15'1414.6
2014-Aug-27 19:33N 56°07' W 002°39'1515.1
2014-Aug-27 18:33N 56°03' W 003°06'1111.2
2014-Aug-27 17:34N 56°00' W 003°25'1 1.4
2014-Aug-27 16:33N 56°01' W 003°26'0 0.0
2014-Aug-27 15:33N 56°01' W 003°26'0 0.0
2014-Aug-27 12:33N 56°01' W 003°26'0 0.0
2014-Aug-27 10:33N 56°01' W 003°26'0 0.0
2014-Aug-27 09:33N 56°01' W 003°26'0 0.0
2014-Aug-27 08:33N 56°01' W 003°26'2 2.1
2014-Aug-27 07:33N 56°00' W 003°23'1312.8
2014-Aug-27 06:33N 56°04' W 003°01'1212.3
2014-Aug-27 05:33N 56°10' W 002°42'1514.8
2014-Aug-27 04:33N 56°21' W 002°24'6115.3
2014-Aug-27 00:33N 57°18' W 001°44'1515.1
2014-Aug-26 23:33N 57°33' W 001°38'1716.7
2014-Aug-26 22:33N 57°48' W 001°51'8015.9
2014-Aug-26 17:33N 59°01' W 002°53'3 3.0
2014-Aug-26 16:33N 58°60' W 002°58'0 0.0
2014-Aug-26 15:33N 58°60' W 002°58'0 0.0
2014-Aug-26 14:33N 58°60' W 002°58'0 0.0
2014-Aug-26 13:33N 58°60' W 002°58'0 0.0
2014-Aug-26 12:33N 58°60' W 002°58'0 0.0
2014-Aug-26 11:33N 58°60' W 002°58'0 0.0
2014-Aug-26 10:33N 58°60' W 002°58'4 4.3
2014-Aug-26 09:33N 59°01' W 002°50'1310.1
2014-Aug-26 08:14N 58°53' W 002°28'16 9.7
2014-Aug-26 06:33N 58°43' W 002°52'1412.9
2014-Aug-26 05:30N 58°43' W 003°18'1111.2
2014-Aug-26 04:33N 58°42' W 003°38'1111.4
2014-Aug-26 03:33N 58°42' W 003°60'1111.4
2014-Aug-26 02:33N 58°42' W 004°22'4010.0
2014-Aug-25 22:33N 58°21' W 005°27'23 1.4
2014-Aug-25 06:33N 57°59' W 005°43'13513.5
2014-Aug-24 20:34N 55°48' W 006°46'1413.9
2014-Aug-24 19:34N 55°37' W 006°31'1514.8
2014-Aug-24 18:34N 55°28' W 006°11'1515.5
2014-Aug-24 17:33N 55°16' W 005°52'3414.5
2014-Aug-24 15:14N 55°31' W 004°59'1214.8
2014-Aug-24 14:24N 55°43' W 004°55'4 0.4
2014-Aug-24 06:28N 55°47' W 004°53'7 7.5
2014-Aug-24 05:33N 55°41' W 004°60'3711.3
2014-Aug-24 02:19N 55°06' W 005°20'6 8.3
2014-Aug-24 01:33N 55°01' W 005°25'5 5.2
2014-Aug-24 00:33N 54°56' W 005°30'2 2.2
2014-Aug-23 23:33N 54°55' W 005°33'1111.3
2014-Aug-23 22:33N 54°43' W 005°35'1110.4
2014-Aug-23 21:30N 54°39' W 005°52'21 1.2
2014-Aug-23 03:34N 54°29' W 005°20'1413.5
2014-Aug-23 02:33N 54°15' W 005°24'98 5.2
2014-Aug-22 07:29N 52°38' W 005°52'1515.6
2014-Aug-22 06:34N 52°24' W 005°50'1716.7
2014-Aug-22 05:34N 52°07' W 005°49'  
Track history (hours):
 
Tides and Currents Weather Stations Pressure Air Temp Water Temp Dewpoint Dewpoint Depression Visibility Wind Speed Wind Dir Waves Ship Positions

Ocean Majesty

Last reported at 2014-Sep-01 05:33 UTC. Time now 2014-Sep-01 21:23 UTC.
Position N 45°38' W 001°18'.

Length 136 m; draft 6.3 m.

Type: Passenger vessel. MMSI: 255717000.

Date/timePositionNaut miles runAvg speedWind from/ knotsBaromVisibWave heightAir tempDewpointWater temp
2014-Sep-01 05:33N 45°38' W 001°18'9 8.6
2014-Sep-01 04:33N 45°41' W 001°29'1616.3
2014-Sep-01 03:33N 45°53' W 001°45'1616.3
2014-Sep-01 02:33N 46°05' W 002°02'1616.5
2014-Sep-01 01:33N 46°16' W 002°18'1816.5
2014-Sep-01 00:26N 46°28' W 002°39'1516.2
2014-Aug-31 23:31N 46°38' W 002°55'1616.6
2014-Aug-31 22:33N 46°48' W 003°13'1717.0
2014-Aug-31 21:32N 46°59' W 003°32'3417.2
2014-Aug-31 19:33N 47°21' W 004°11'1717.3
2014-Aug-31 18:33N 47°33' W 004°30'1716.7
2014-Aug-31 17:33N 47°44' W 004°49'1515.6
2014-Aug-31 16:33N 47°54' W 005°06'3715.8
2014-Aug-31 14:11N 48°23' W 005°41'9113.8
2014-Aug-31 07:33N 49°30' W 004°07'17615.7
2014-Aug-30 20:20N 50°33' E 000°08'1316.8
2014-Aug-30 19:33N 50°37' E 000°28'1717.0
2014-Aug-30 18:33N 50°46' E 000°51'2116.1
2014-Aug-30 17:17N 50°58' E 001°17'1013.9
2014-Aug-30 16:33N 51°05' E 001°29'1413.6
2014-Aug-30 15:34N 51°14' E 001°45'1414.3
2014-Aug-30 14:33N 51°27' E 001°56'1615.8
2014-Aug-30 13:33N 51°39' E 002°12'9016.9
2014-Aug-30 08:14N 52°48' E 003°45'1315.1
2014-Aug-30 07:22N 52°58' E 003°59'1614.7
2014-Aug-30 06:18N 53°09' E 004°19'1114.1
2014-Aug-30 05:33N 53°17' E 004°29'1514.7
2014-Aug-30 04:34N 53°29' E 004°43'1616.4
2014-Aug-30 03:33N 53°36' E 005°09'1716.7
2014-Aug-30 02:34N 53°41' E 005°36'7715.4
2014-Aug-29 21:33N 54°02' E 007°41'1615.6
2014-Aug-29 20:33N 54°01' E 008°07'1514.5
2014-Aug-29 19:33N 53°58' E 008°32'1514.8
2014-Aug-29 18:33N 53°51' E 008°53'1312.8
2014-Aug-29 17:33N 53°53' E 009°15'1414.5
2014-Aug-29 16:33N 53°41' E 009°30'1110.7
2014-Aug-29 15:33N 53°34' E 009°43'9 8.9
2014-Aug-29 14:33N 53°33' E 009°58'1 1.1
2014-Aug-29 13:28N 53°32' E 009°60'0 0.0
2014-Aug-29 12:31N 53°32' E 009°60'0 0.0
2014-Aug-29 11:31N 53°32' E 009°60'0 0.0
2014-Aug-29 10:31N 53°32' E 009°60'0 0.0
2014-Aug-29 09:31N 53°32' E 009°60'0 0.0
2014-Aug-29 08:31N 53°32' E 009°60'0 0.0
2014-Aug-29 07:31N 53°32' E 009°60'0 0.0
2014-Aug-29 06:34N 53°32' E 009°60'4 4.2
2014-Aug-29 05:34N 53°33' E 009°53'1111.2
2014-Aug-29 04:34N 53°36' E 009°35'1312.9
2014-Aug-29 03:34N 53°47' E 009°23'1111.3
2014-Aug-29 02:33N 53°53' E 009°06'1110.7
2014-Aug-29 01:33N 53°50' E 008°48'1111.1
2014-Aug-29 00:32N 53°58' E 008°34'1312.6
2014-Aug-28 23:30N 53°60' E 008°12'1110.8
2014-Aug-28 22:27N 54°03' E 007°54'1412.7
2014-Aug-28 21:23N 54°12' E 007°37'1113.1
2014-Aug-28 20:33N 54°18' E 007°21'1313.3
2014-Aug-28 19:33N 54°25' E 007°01'27614.5
2014-Aug-28 00:30N 55°46' W 000°39'1514.3
2014-Aug-27 23:28N 55°50' W 001°04'1414.0
2014-Aug-27 22:30N 55°54' W 001°28'2814.2
2014-Aug-27 20:31N 56°03' W 002°15'1414.6
2014-Aug-27 19:33N 56°07' W 002°39'1515.1
2014-Aug-27 18:33N 56°03' W 003°06'1111.2
2014-Aug-27 17:34N 56°00' W 003°25'1 1.4
2014-Aug-27 16:33N 56°01' W 003°26'0 0.0
2014-Aug-27 15:33N 56°01' W 003°26'0 0.0
2014-Aug-27 12:33N 56°01' W 003°26'0 0.0
2014-Aug-27 10:33N 56°01' W 003°26'0 0.0
2014-Aug-27 09:33N 56°01' W 003°26'0 0.0
2014-Aug-27 08:33N 56°01' W 003°26'2 2.1
2014-Aug-27 07:33N 56°00' W 003°23'1312.8
2014-Aug-27 06:33N 56°04' W 003°01'1212.3
2014-Aug-27 05:33N 56°10' W 002°42'1514.8
2014-Aug-27 04:33N 56°21' W 002°24'6115.3
2014-Aug-27 00:33N 57°18' W 001°44'1515.1
2014-Aug-26 23:33N 57°33' W 001°38'1716.7
2014-Aug-26 22:33N 57°48' W 001°51'8015.9
2014-Aug-26 17:33N 59°01' W 002°53'3 3.0
2014-Aug-26 16:33N 58°60' W 002°58'0 0.0
2014-Aug-26 15:33N 58°60' W 002°58'0 0.0
2014-Aug-26 14:33N 58°60' W 002°58'0 0.0
2014-Aug-26 13:33N 58°60' W 002°58'0 0.0
2014-Aug-26 12:33N 58°60' W 002°58'0 0.0
2014-Aug-26 11:33N 58°60' W 002°58'0 0.0
2014-Aug-26 10:33N 58°60' W 002°58'4 4.3
2014-Aug-26 09:33N 59°01' W 002°50'1310.1
2014-Aug-26 08:14N 58°53' W 002°28'16 9.7
2014-Aug-26 06:33N 58°43' W 002°52'1412.9
2014-Aug-26 05:30N 58°43' W 003°18'1111.2
2014-Aug-26 04:33N 58°42' W 003°38'1111.4
2014-Aug-26 03:33N 58°42' W 003°60'1111.4
2014-Aug-26 02:33N 58°42' W 004°22'4010.0
2014-Aug-25 22:33N 58°21' W 005°27'23 1.4
2014-Aug-25 06:33N 57°59' W 005°43'13513.5
2014-Aug-24 20:34N 55°48' W 006°46'1413.9
2014-Aug-24 19:34N 55°37' W 006°31'1514.8
2014-Aug-24 18:34N 55°28' W 006°11'1515.5
2014-Aug-24 17:33N 55°16' W 005°52'3414.5
2014-Aug-24 15:14N 55°31' W 004°59'1214.8
2014-Aug-24 14:24N 55°43' W 004°55'4 0.4
2014-Aug-24 06:28N 55°47' W 004°53'7 7.5
2014-Aug-24 05:33N 55°41' W 004°60'3711.3
2014-Aug-24 02:19N 55°06' W 005°20'6 8.3
2014-Aug-24 01:33N 55°01' W 005°25'5 5.2
2014-Aug-24 00:33N 54°56' W 005°30'2 2.2
2014-Aug-23 23:33N 54°55' W 005°33'1111.3
2014-Aug-23 22:33N 54°43' W 005°35'1110.4
2014-Aug-23 21:30N 54°39' W 005°52'21 1.2
2014-Aug-23 03:34N 54°29' W 005°20'1413.5
2014-Aug-23 02:33N 54°15' W 005°24'98 5.2
2014-Aug-22 07:29N 52°38' W 005°52'1515.6
2014-Aug-22 06:34N 52°24' W 005°50'1716.7
2014-Aug-22 05:34N 52°07' W 005°49'  

Dump ship's entire track history